Time;durP1;ratioP1;P1;durP2;ratioP2;P2;SDS_P1;SDS_P2;PMS_P1;PMS_P2;Temp;Humidity;BMP_temperature;BMP_pressure;BME280_temperature;BME280_humidity;BME280_pressure;Samples;Min_cycle;Max_cycle;Signal;HPM_P1;HPM_P2
2022/07/30 00:01:57;;;;;;;5.95;4.78;;;14.70;99.90;;;;;;5063396;28;20101;-66
2022/07/30 00:04:23;;;;;;;5.90;5.25;;;14.60;99.90;;;;;;5072425;28;20052;-66
2022/07/30 00:06:49;;;;;;;5.80;5.30;;;14.60;99.90;;;;;;5072990;28;20040;-67
2022/07/30 00:09:15;;;;;;;5.90;5.35;;;14.60;99.90;;;;;;5072032;28;20048;-66
2022/07/30 00:11:40;;;;;;;6.72;5.43;;;14.60;99.90;;;;;;5071408;28;20573;-67
2022/07/30 00:14:06;;;;;;;5.78;5.18;;;14.50;99.90;;;;;;5070003;28;20401;-66
2022/07/30 00:16:32;;;;;;;8.73;5.65;;;14.50;99.90;;;;;;5067068;28;20058;-66
2022/07/30 00:18:57;;;;;;;6.20;5.22;;;14.50;99.90;;;;;;5069754;28;20127;-66
2022/07/30 00:21:23;;;;;;;8.60;5.20;;;14.50;99.90;;;;;;5069617;28;20049;-66
2022/07/30 00:23:48;;;;;;;6.50;5.45;;;14.40;99.90;;;;;;5071664;28;20521;-66
2022/07/30 00:26:14;;;;;;;6.35;4.90;;;14.40;99.90;;;;;;5072560;28;20042;-66
2022/07/30 00:28:40;;;;;;;6.50;5.20;;;14.40;99.90;;;;;;5067805;28;20140;-66
2022/07/30 00:31:05;;;;;;;5.68;4.32;;;14.30;99.90;;;;;;5072510;28;20033;-66
2022/07/30 00:33:31;;;;;;;7.43;4.43;;;14.30;99.90;;;;;;5069473;28;20091;-66
2022/07/30 00:35:56;;;;;;;5.78;4.50;;;14.30;99.90;;;;;;5063782;28;20032;-67
2022/07/30 00:38:22;;;;;;;6.55;4.93;;;14.20;99.90;;;;;;5070962;28;20048;-66
2022/07/30 00:40:48;;;;;;;5.00;4.50;;;14.20;99.90;;;;;;5072312;28;20048;-66
2022/07/30 00:43:17;;;;;;;8.57;4.95;;;14.10;99.90;;;;;;5070055;28;20052;-66
2022/07/30 00:45:43;;;;;;;7.55;5.70;;;14.10;99.90;;;;;;5070560;28;20101;-64
2022/07/30 00:48:10;;;;;;;5.75;5.20;;;14.10;99.90;;;;;;5061274;28;20044;-64
2022/07/30 00:50:36;;;;;;;6.55;5.10;;;14.00;99.90;;;;;;5052937;28;20120;-64
2022/07/30 00:53:02;;;;;;;5.00;4.57;;;13.90;99.90;;;;;;5050635;28;20425;-65
2022/07/30 00:55:28;;;;;;;5.70;4.63;;;14.00;99.90;;;;;;5066650;28;20036;-64
2022/07/30 00:57:54;;;;;;;4.50;4.20;;;14.00;99.90;;;;;;5068857;28;20052;-64
2022/07/30 01:00:19;;;;;;;6.57;5.15;;;13.90;99.90;;;;;;5051854;28;20040;-64
2022/07/30 01:02:45;;;;;;;5.50;5.00;;;13.90;99.90;;;;;;5059564;28;20101;-64
2022/07/30 01:05:11;;;;;;;5.30;4.80;;;13.90;99.90;;;;;;5067962;28;20047;-64
2022/07/30 01:07:36;;;;;;;7.25;5.35;;;13.80;99.90;;;;;;5070531;28;20044;-64
2022/07/30 01:10:04;;;;;;;5.28;4.65;;;13.80;99.90;;;;;;5071301;28;20044;-64
2022/07/30 01:12:30;;;;;;;4.57;4.00;;;13.80;99.90;;;;;;5071632;28;20048;-65
2022/07/30 01:14:58;;;;;;;5.25;4.65;;;13.70;99.90;;;;;;5069655;28;20067;-64
2022/07/30 01:17:24;;;;;;;4.25;3.88;;;13.60;99.90;;;;;;5050997;28;20432;-64
2022/07/30 01:19:57;;;;;;;3.70;3.40;;;13.60;99.90;;;;;;5068593;28;20492;-64
2022/07/30 01:22:28;;;;;;;3.92;3.55;;;13.60;99.90;;;;;;5068404;28;20033;-65
2022/07/30 01:25:23;;;;;;;4.55;3.65;;;13.60;99.90;;;;;;5064885;28;20123;-64
2022/07/30 01:27:57;;;;;;;4.25;3.85;;;13.60;99.90;;;;;;5058925;28;20040;-64
2022/07/30 01:30:26;;;;;;;3.55;3.25;;;13.50;99.90;;;;;;5068297;28;20057;-64
2022/07/30 01:32:54;;;;;;;4.47;4.07;;;13.60;99.90;;;;;;5071037;28;20089;-64
2022/07/30 01:35:23;;;;;;;4.00;3.70;;;13.50;99.90;;;;;;5055967;28;20084;-64
2022/07/30 01:37:50;;;;;;;5.28;4.78;;;13.50;99.90;;;;;;5058937;28;20055;-64
2022/07/30 01:40:17;;;;;;;5.25;4.82;;;13.50;99.90;;;;;;5069376;28;20127;-64
2022/07/30 01:42:43;;;;;;;5.65;5.15;;;13.50;99.90;;;;;;5069228;28;20052;-64
2022/07/30 01:45:11;;;;;;;5.25;4.85;;;13.50;99.90;;;;;;5069738;28;20086;-64
2022/07/30 01:47:39;;;;;;;5.45;4.95;;;13.40;99.90;;;;;;5071136;28;20033;-64
2022/07/30 01:50:12;;;;;;;5.40;4.90;;;13.40;99.90;;;;;;5065029;28;20054;-65
2022/07/30 01:52:40;;;;;;;4.80;4.40;;;13.40;99.90;;;;;;5071230;28;20036;-64
2022/07/30 01:55:11;;;;;;;4.63;4.20;;;13.40;99.90;;;;;;5067652;28;20549;-64
2022/07/30 01:57:38;;;;;;;4.30;3.97;;;13.40;99.90;;;;;;5069198;28;20146;-64
2022/07/30 02:00:06;;;;;;;4.90;4.38;;;13.30;99.90;;;;;;5066564;28;20621;-64
2022/07/30 02:02:34;;;;;;;4.38;4.00;;;13.30;99.90;;;;;;5068167;28;20048;-64
2022/07/30 02:04:59;;;;;;;4.78;3.70;;;13.30;99.90;;;;;;5069088;28;20055;-64
2022/07/30 02:07:27;;;;;;;4.35;3.90;;;13.30;99.90;;;;;;5070934;28;20378;-64
2022/07/30 02:10:02;;;;;;;3.80;3.50;;;13.20;99.90;;;;;;5070907;28;20053;-64
2022/07/30 02:12:30;;;;;;;3.92;3.53;;;13.20;99.90;;;;;;5069805;28;20029;-65
2022/07/30 02:15:22;;;;;;;4.35;3.80;;;13.10;99.90;;;;;;5067797;28;20043;-64
2022/07/30 02:17:51;;;;;;;3.75;3.40;;;13.00;99.90;;;;;;5055110;28;20145;-64
2022/07/30 02:20:19;;;;;;;4.22;3.38;;;13.00;99.90;;;;;;5067491;28;20047;-64
2022/07/30 02:22:46;;;;;;;5.05;3.78;;;13.00;99.90;;;;;;5071139;28;20044;-66
2022/07/30 02:25:17;;;;;;;3.95;3.55;;;13.00;99.90;;;;;;5069582;28;20080;-66
2022/07/30 02:27:47;;;;;;;5.78;3.83;;;12.90;99.90;;;;;;5069808;28;20035;-66
2022/07/30 02:30:13;;;;;;;4.45;4.05;;;12.90;99.90;;;;;;5070529;28;20512;-66
2022/07/30 02:32:42;;;;;;;5.85;4.57;;;12.90;99.90;;;;;;5067628;28;20093;-66
2022/07/30 02:35:17;;;;;;;4.53;3.80;;;12.80;99.90;;;;;;5070707;28;20048;-66
2022/07/30 02:37:45;;;;;;;6.80;3.67;;;12.80;99.90;;;;;;5070560;28;20052;-66
2022/07/30 02:40:16;;;;;;;5.07;3.78;;;12.80;99.90;;;;;;5070226;28;20076;-66
2022/07/30 02:42:45;;;;;;;5.68;4.32;;;12.80;99.90;;;;;;5068799;28;20048;-67
2022/07/30 02:45:11;;;;;;;5.80;4.28;;;12.80;99.90;;;;;;5073711;28;20115;-66
2022/07/30 02:47:38;;;;;;;4.32;4.00;;;12.70;99.90;;;;;;5072756;28;20780;-66
2022/07/30 02:50:06;;;;;;;4.55;3.97;;;12.70;99.90;;;;;;5063819;28;20076;-66
2022/07/30 02:52:33;;;;;;;4.20;3.80;;;12.70;99.90;;;;;;5068326;28;20493;-66
2022/07/30 02:54:59;;;;;;;5.40;4.85;;;12.70;99.90;;;;;;5071899;28;20076;-66
2022/07/30 02:57:27;;;;;;;5.03;4.03;;;12.60;99.90;;;;;;5072890;28;20036;-66
2022/07/30 02:59:54;;;;;;;4.57;4.18;;;12.60;99.90;;;;;;5072534;28;20123;-66
2022/07/30 03:02:21;;;;;;;5.75;4.43;;;12.60;99.90;;;;;;5043657;28;20044;-66
2022/07/30 03:04:47;;;;;;;4.72;3.85;;;12.60;99.90;;;;;;5072981;28;20072;-66
2022/07/30 03:07:13;;;;;;;5.15;4.40;;;12.50;99.90;;;;;;5072124;28;20439;-66
2022/07/30 03:09:42;;;;;;;4.60;4.20;;;12.50;99.90;;;;;;5072095;28;20067;-66
2022/07/30 03:12:11;;;;;;;4.80;4.40;;;12.50;99.90;;;;;;5071717;28;20055;-66
2022/07/30 03:14:36;;;;;;;5.82;4.45;;;12.40;99.90;;;;;;5071780;28;20041;-66
2022/07/30 03:17:04;;;;;;;5.40;4.90;;;12.50;99.90;;;;;;5072297;28;20048;-66
2022/07/30 03:19:33;;;;;;;5.90;5.38;;;12.50;99.90;;;;;;5071557;28;20045;-66
2022/07/30 03:22:01;;;;;;;5.43;4.93;;;12.40;99.90;;;;;;5068272;28;20045;-66
2022/07/30 03:24:27;;;;;;;7.10;6.25;;;12.50;99.90;;;;;;5063130;28;20037;-66
2022/07/30 03:26:55;;;;;;;6.93;5.88;;;12.50;99.90;;;;;;5053964;28;20044;-66
2022/07/30 03:29:23;;;;;;;6.75;6.15;;;12.40;99.90;;;;;;5070907;28;20052;-66
2022/07/30 03:31:49;;;;;;;7.10;6.22;;;12.40;99.90;;;;;;5071067;28;20112;-66
2022/07/30 03:34:16;;;;;;;6.43;5.70;;;12.30;99.90;;;;;;5057796;28;20163;-66
2022/07/30 03:36:42;;;;;;;6.43;5.85;;;12.20;99.90;;;;;;5066102;28;20049;-66
2022/07/30 03:39:08;;;;;;;5.90;5.40;;;12.20;99.90;;;;;;5071629;28;20051;-66
2022/07/30 03:41:36;;;;;;;6.40;5.78;;;12.20;99.90;;;;;;5071960;28;20601;-66
2022/07/30 03:44:02;;;;;;;7.20;6.38;;;12.20;99.90;;;;;;5072313;28;20075;-67
2022/07/30 03:46:29;;;;;;;7.25;6.55;;;12.20;99.90;;;;;;5072991;28;20036;-67
2022/07/30 03:48:56;;;;;;;7.22;6.53;;;12.20;99.90;;;;;;5071229;28;20055;-66
2022/07/30 03:51:22;;;;;;;6.47;5.88;;;12.20;99.90;;;;;;5072934;28;20107;-66
2022/07/30 03:53:50;;;;;;;7.50;6.78;;;12.30;99.90;;;;;;5072297;28;20048;-66
2022/07/30 03:56:16;;;;;;;6.78;5.88;;;12.20;99.90;;;;;;5066720;28;20033;-66
2022/07/30 03:58:42;;;;;;;8.90;6.68;;;12.20;99.90;;;;;;5059502;28;20128;-66
2022/07/30 04:01:08;;;;;;;7.28;6.57;;;12.20;99.90;;;;;;5052432;28;20554;-66
2022/07/30 04:03:33;;;;;;;6.75;6.07;;;12.20;99.90;;;;;;5055140;28;20037;-66
2022/07/30 04:05:59;;;;;;;7.05;6.30;;;12.20;99.90;;;;;;5071639;28;20059;-66
2022/07/30 04:08:26;;;;;;;7.65;6.85;;;12.20;99.90;;;;;;5070210;28;20402;-66
2022/07/30 04:10:52;;;;;;;7.72;6.97;;;12.20;99.90;;;;;;5071296;28;20369;-66
2022/07/30 04:13:18;;;;;;;7.68;6.88;;;12.20;99.90;;;;;;5069903;28;20048;-66
2022/07/30 04:15:46;;;;;;;10.20;7.00;;;12.20;99.90;;;;;;5071119;28;20066;-66
2022/07/30 04:18:15;;;;;;;9.45;7.50;;;12.20;99.90;;;;;;5071536;28;20048;-66
2022/07/30 04:20:43;;;;;;;7.95;7.15;;;12.20;99.90;;;;;;5062177;28;20527;-66
2022/07/30 04:23:10;;;;;;;8.88;7.93;;;12.20;99.90;;;;;;5071755;28;20048;-66
2022/07/30 04:25:37;;;;;;;9.10;7.28;;;12.30;99.90;;;;;;5072401;28;20837;-66
2022/07/30 04:28:04;;;;;;;8.63;7.78;;;12.30;99.90;;;;;;5070938;28;20033;-66
2022/07/30 04:30:33;;;;;;;9.40;7.90;;;12.40;99.90;;;;;;5072501;28;20037;-66
2022/07/30 04:33:00;;;;;;;10.30;8.98;;;12.40;99.90;;;;;;5070917;28;20040;-66
2022/07/30 04:35:27;;;;;;;11.10;8.13;;;12.40;99.90;;;;;;5072269;28;20036;-66
2022/07/30 04:37:53;;;;;;;8.98;8.13;;;12.50;99.90;;;;;;5070630;28;20052;-66
2022/07/30 04:40:19;;;;;;;8.57;6.32;;;12.60;99.90;;;;;;5071868;28;20048;-66
2022/07/30 04:42:44;;;;;;;7.57;6.88;;;12.60;99.90;;;;;;5070458;28;20513;-66
2022/07/30 04:45:10;;;;;;;7.97;5.75;;;12.60;99.90;;;;;;5070134;28;20039;-67
2022/07/30 04:47:36;;;;;;;6.35;5.78;;;12.70;99.90;;;;;;5069328;28;20390;-67
2022/07/30 04:50:03;;;;;;;6.25;5.65;;;12.70;99.90;;;;;;5066951;28;20045;-66
2022/07/30 04:52:30;;;;;;;5.85;5.25;;;12.80;99.90;;;;;;5049092;28;20037;-66
2022/07/30 04:55:01;;;;;;;6.40;5.80;;;12.80;99.90;;;;;;5070857;28;20035;-66
2022/07/30 04:57:29;;;;;;;6.32;5.82;;;12.80;99.90;;;;;;5067898;28;20032;-66
2022/07/30 04:59:54;;;;;;;6.65;6.00;;;12.90;99.90;;;;;;5053895;28;20055;-66
2022/07/30 05:02:22;;;;;;;6.78;6.22;;;12.90;99.90;;;;;;5068187;28;20040;-66
2022/07/30 05:04:49;;;;;;;6.53;5.90;;;13.00;99.90;;;;;;5070075;28;20076;-66
2022/07/30 05:07:16;;;;;;;7.30;6.43;;;13.10;99.90;;;;;;5058507;28;20107;-66
2022/07/30 05:09:42;;;;;;;6.30;5.45;;;13.10;99.90;;;;;;5071180;28;20048;-66
2022/07/30 05:12:08;;;;;;;6.80;6.22;;;13.20;99.90;;;;;;5071668;28;20048;-66
2022/07/30 05:14:34;;;;;;;5.90;5.50;;;13.30;99.90;;;;;;5070524;28;20029;-64
2022/07/30 05:16:59;;;;;;;6.60;6.10;;;13.50;99.90;;;;;;5071642;28;20137;-64
2022/07/30 05:19:25;;;;;;;6.32;5.82;;;13.50;99.90;;;;;;5068993;28;20207;-64
2022/07/30 05:21:51;;;;;;;7.20;6.60;;;13.70;99.90;;;;;;5069529;28;20057;-64
2022/07/30 05:24:16;;;;;;;8.57;6.25;;;13.80;99.90;;;;;;5064116;28;20052;-64
2022/07/30 05:26:42;;;;;;;6.88;6.35;;;13.90;99.90;;;;;;5070132;28;20047;-66
2022/07/30 05:29:08;;;;;;;7.65;7.05;;;14.00;99.90;;;;;;5069808;28;20084;-66
2022/07/30 05:31:34;;;;;;;9.55;8.55;;;14.10;99.90;;;;;;5070368;28;20064;-67
2022/07/30 05:33:59;;;;;;;10.43;9.38;;;14.20;99.90;;;;;;5070025;28;20521;-66
2022/07/30 05:36:25;;;;;;;14.40;11.25;;;14.30;99.90;;;;;;5071194;28;20067;-66
2022/07/30 05:38:50;;;;;;;11.68;10.57;;;14.40;99.90;;;;;;5068972;28;20056;-66
2022/07/30 05:41:16;;;;;;;11.60;10.43;;;14.50;99.90;;;;;;5054424;28;20037;-66
2022/07/30 05:43:42;;;;;;;12.82;10.98;;;14.70;99.90;;;;;;5061039;28;20535;-66
2022/07/30 05:46:07;;;;;;;12.90;11.55;;;14.80;99.90;;;;;;5070382;28;20036;-66
2022/07/30 05:48:34;;;;;;;12.82;11.57;;;15.00;99.90;;;;;;5070212;28;20082;-67
2022/07/30 05:51:04;;;;;;;13.35;12.18;;;15.10;99.90;;;;;;5070296;28;20513;-66
2022/07/30 05:53:30;;;;;;;12.98;11.77;;;15.20;99.90;;;;;;5049569;28;20095;-67
2022/07/30 05:55:56;;;;;;;13.38;11.65;;;15.40;99.90;;;;;;5062806;28;20040;-66
2022/07/30 05:58:21;;;;;;;11.93;10.75;;;15.60;99.90;;;;;;5054377;28;20040;-66
2022/07/30 06:00:47;;;;;;;12.20;9.50;;;16.00;99.90;;;;;;5059671;28;20474;-67
2022/07/30 06:03:13;;;;;;;10.75;9.55;;;17.40;99.90;;;;;;5057464;28;20060;-65
2022/07/30 06:05:38;;;;;;;11.18;10.00;;;18.90;99.90;;;;;;5064622;28;20067;-65
2022/07/30 06:08:04;;;;;;;10.32;9.30;;;20.20;99.90;;;;;;5070889;28;20492;-65
2022/07/30 06:10:30;;;;;;;9.88;8.90;;;21.40;99.90;;;;;;5068897;28;20401;-65
2022/07/30 06:12:55;;;;;;;11.80;8.77;;;22.40;99.90;;;;;;5068693;28;20044;-65
2022/07/30 06:15:21;;;;;;;9.10;7.68;;;23.30;99.90;;;;;;5069351;28;20090;-65
2022/07/30 06:17:47;;;;;;;9.13;8.23;;;24.20;98.70;;;;;;5069247;28;20045;-65
2022/07/30 06:20:15;;;;;;;7.80;7.10;;;24.80;97.60;;;;;;5073989;28;20039;-66
2022/07/30 06:22:41;;;;;;;7.65;6.95;;;25.40;96.60;;;;;;5071436;28;20055;-65
2022/07/30 06:25:08;;;;;;;7.20;6.60;;;26.00;94.80;;;;;;5072576;28;20037;-66
2022/07/30 06:27:33;;;;;;;7.43;6.72;;;26.60;94.60;;;;;;5073172;28;20478;-65
2022/07/30 06:30:00;;;;;;;7.25;6.65;;;27.50;91.30;;;;;;5074674;28;20044;-65
2022/07/30 06:32:25;;;;;;;7.93;6.57;;;27.50;91.60;;;;;;5056588;28;20086;-66
2022/07/30 06:34:51;;;;;;;5.75;5.25;;;;;;;;;;5067183;28;20037;-65
2022/07/30 06:37:17;;;;;;;6.22;5.60;;;28.30;85.10;;;;;;5074213;28;20057;-65
2022/07/30 06:39:42;;;;;;;6.43;5.70;;;28.50;84.50;;;;;;5074004;28;20091;-65
2022/07/30 06:42:08;;;;;;;5.70;5.20;;;28.80;83.70;;;;;;5059953;28;20045;-66
2022/07/30 06:44:34;;;;;;;6.88;4.90;;;29.20;84.60;;;;;;5072820;28;20036;-65
2022/07/30 06:46:59;;;;;;;5.80;5.05;;;29.40;84.80;;;;;;5074240;28;20119;-66
2022/07/30 06:49:25;;;;;;;7.03;5.20;;;29.70;81.50;;;;;;5065425;28;20382;-66
2022/07/30 06:54:19;;;;;;;6.05;5.32;;;29.90;81.50;;;;;;5031616;28;20057;-72
2022/07/30 06:56:44;;;;;;;7.43;5.13;;;30.10;78.60;;;;;;5029325;28;20033;-72
2022/07/30 06:59:10;;;;;;;5.38;4.88;;;30.10;79.40;;;;;;5016422;28;20040;-71
2022/07/30 07:01:35;;;;;;;9.02;5.68;;;30.20;80.30;;;;;;5012353;28;20526;-71
2022/07/30 07:04:02;;;;;;;7.90;5.68;;;30.30;82.10;;;;;;5028117;28;20087;-70
2022/07/30 07:06:28;;;;;;;9.27;5.10;;;30.20;82.00;;;;;;5020000;28;20045;-71
2022/07/30 07:08:53;;;;;;;7.65;6.47;;;30.30;82.50;;;;;;5029221;28;20489;-71
2022/07/30 07:11:19;;;;;;;8.85;6.30;;;30.50;80.20;;;;;;5031000;28;20037;-71
2022/07/30 07:13:44;;;;;;;6.85;5.50;;;30.60;81.30;;;;;;5021765;28;20060;-72
2022/07/30 07:16:10;;;;;;;8.32;5.85;;;30.80;81.80;;;;;;5022723;28;20057;-72
2022/07/30 07:18:36;;;;;;;7.10;5.63;;;31.00;78.20;;;;;;5024462;28;20034;-72
2022/07/30 07:21:01;;;;;;;5.80;5.18;;;31.20;79.80;;;;;;5020511;28;20048;-72
2022/07/30 07:23:27;;;;;;;6.45;5.22;;;31.10;78.20;;;;;;5028441;28;20047;-72
2022/07/30 07:25:55;;;;;;;9.88;5.53;;;30.80;79.80;;;;;;5029332;28;20084;-72
2022/07/30 07:28:20;;;;;;;7.97;5.35;;;30.50;78.30;;;;;;5044716;28;20437;-71
2022/07/30 07:30:46;;;;;;;7.50;5.60;;;30.40;79.40;;;;;;5021292;28;20046;-72
2022/07/30 07:33:11;;;;;;;5.72;4.18;;;30.60;79.30;;;;;;5015564;28;20116;-71
2022/07/30 07:35:37;;;;;;;5.85;4.78;;;30.80;75.70;;;;;;5031871;28;20095;-71
2022/07/30 07:38:03;;;;;;;9.23;5.45;;;31.10;79.00;;;;;;5031446;28;20056;-71
2022/07/30 07:40:28;;;;;;;6.85;5.72;;;30.80;78.30;;;;;;5030745;28;20128;-71
2022/07/30 07:42:54;;;;;;;7.05;4.30;;;31.00;79.90;;;;;;5013190;28;20041;-72
2022/07/30 07:45:20;;;;;;;8.73;5.05;;;31.20;76.90;;;;;;5023706;28;20068;-71
2022/07/30 07:47:47;;;;;;;6.53;5.07;;;31.10;74.20;;;;;;5029646;28;20068;-71
2022/07/30 07:50:15;;;;;;;8.75;5.25;;;30.40;76.00;;;;;;5020042;28;20044;-71
2022/07/30 07:52:40;;;;;;;8.95;5.07;;;30.80;73.20;;;;;;5024500;28;20414;-72
2022/07/30 07:55:06;;;;;;;9.48;4.93;;;30.70;74.40;;;;;;5031249;28;20053;-72
2022/07/30 07:57:39;;;;;;;5.82;5.20;;;29.50;79.80;;;;;;5029783;28;20098;-72
2022/07/30 08:00:06;;;;;;;6.72;5.35;;;30.10;76.40;;;;;;5019191;28;20387;-71
2022/07/30 08:02:31;;;;;;;8.65;4.95;;;29.50;79.80;;;;;;5021335;28;20047;-71
2022/07/30 08:04:57;;;;;;;7.53;5.50;;;29.90;76.80;;;;;;5013940;28;20137;-71
2022/07/30 08:07:22;;;;;;;9.23;4.93;;;29.90;77.50;;;;;;5011299;28;20069;-71
2022/07/30 08:09:48;;;;;;;7.78;4.38;;;29.40;78.40;;;;;;5013108;28;20034;-72
2022/07/30 08:12:13;;;;;;;5.25;4.75;;;28.90;77.40;;;;;;5011203;28;20038;-71
2022/07/30 08:14:39;;;;;;;6.45;4.95;;;28.20;80.50;;;;;;5029629;28;20045;-71
2022/07/30 08:17:05;;;;;;;6.05;4.93;;;27.80;78.20;;;;;;5030765;28;20793;-71
2022/07/30 08:19:30;;;;;;;6.63;4.70;;;27.10;81.50;;;;;;5021691;28;20048;-71
2022/07/30 08:21:58;;;;;;;6.93;4.85;;;26.60;84.10;;;;;;5029278;28;20048;-71
2022/07/30 08:24:24;;;;;;;5.32;4.68;;;25.80;88.00;;;;;;5027461;28;20045;-72
2022/07/30 08:26:49;;;;;;;8.75;5.13;;;25.80;83.00;;;;;;5026463;28;20041;-71
2022/07/30 08:29:16;;;;;;;7.07;4.28;;;25.40;89.30;;;;;;5030200;28;20053;-71
2022/07/30 08:31:41;;;;;;;6.38;4.88;;;25.30;84.80;;;;;;5029687;28;20487;-71
2022/07/30 08:34:07;;;;;;;7.85;4.85;;;24.70;87.70;;;;;;5030045;28;20152;-71
2022/07/30 08:36:33;;;;;;;8.68;5.45;;;24.50;89.00;;;;;;5030095;28;20049;-71
2022/07/30 08:38:58;;;;;;;8.57;5.00;;;24.50;87.40;;;;;;5030050;28;20053;-71
2022/07/30 08:41:25;;;;;;;5.30;4.07;;;24.50;87.80;;;;;;5019355;28;20444;-71
2022/07/30 08:43:53;;;;;;;4.97;3.90;;;24.50;87.30;;;;;;5024388;28;20045;-71
2022/07/30 08:46:23;;;;;;;9.55;4.47;;;24.30;88.50;;;;;;5010158;28;20115;-71
2022/07/30 08:48:50;;;;;;;7.07;3.95;;;24.20;87.90;;;;;;5024814;28;20041;-71
2022/07/30 08:51:17;;;;;;;6.57;4.95;;;24.10;89.90;;;;;;5020881;28;20033;-71
2022/07/30 08:53:44;;;;;;;7.63;4.00;;;24.20;89.00;;;;;;5026683;28;20049;-71
2022/07/30 08:56:11;;;;;;;6.60;4.28;;;24.20;89.60;;;;;;5028913;28;20081;-71
2022/07/30 08:58:36;;;;;;;6.72;4.00;;;24.30;89.30;;;;;;5018444;28;20060;-70
2022/07/30 09:01:04;;;;;;;6.55;4.50;;;24.20;92.20;;;;;;5010403;28;20033;-70
2022/07/30 09:03:29;;;;;;;8.40;4.40;;;23.90;92.20;;;;;;5019029;28;20137;-71
2022/07/30 09:05:55;;;;;;;5.80;4.05;;;23.90;91.70;;;;;;5028592;28;20518;-71
2022/07/30 09:08:21;;;;;;;7.13;4.20;;;23.70;92.00;;;;;;5028601;28;20400;-71
2022/07/30 09:10:47;;;;;;;6.50;4.45;;;23.70;91.50;;;;;;5025531;28;20049;-71
2022/07/30 09:13:33;;;;;;;6.72;3.63;;;23.70;93.00;;;;;;5017619;28;20057;-71
2022/07/30 09:15:59;;;;;;;7.55;3.92;;;23.70;92.10;;;;;;5017762;28;20068;-71
2022/07/30 09:18:33;;;;;;;7.68;3.90;;;23.80;91.00;;;;;;5023791;28;20540;-71
2022/07/30 09:21:11;;;;;;;3.92;3.55;;;24.00;92.20;;;;;;5025660;28;20052;-71
2022/07/30 09:23:37;;;;;;;5.53;3.42;;;24.20;89.90;;;;;;5027115;28;20117;-71
2022/07/30 09:26:03;;;;;;;6.95;4.20;;;24.20;90.10;;;;;;5008590;28;20120;-71
2022/07/30 09:28:30;;;;;;;5.47;3.47;;;24.30;90.40;;;;;;5009716;28;20068;-71
2022/07/30 09:30:57;;;;;;;9.35;3.40;;;24.40;88.40;;;;;;5010432;28;20063;-71
2022/07/30 09:33:42;;;;;;;5.75;3.45;;;24.40;88.00;;;;;;5026828;28;20041;-71
2022/07/30 09:36:10;;;;;;;8.00;3.33;;;24.50;89.40;;;;;;5009264;28;20091;-71
2022/07/30 09:38:51;;;;;;;8.70;3.30;;;24.50;87.70;;;;;;5026693;28;20148;-71
2022/07/30 09:41:24;;;;;;;5.67;3.17;;;24.60;89.60;;;;;;5015790;28;20479;-70
2022/07/30 09:43:51;;;;;;;6.45;2.97;;;24.30;88.90;;;;;;5010179;28;20288;-71
2022/07/30 09:46:17;;;;;;;5.05;2.72;;;24.10;89.60;;;;;;5010125;28;20084;-71
2022/07/30 09:48:45;;;;;;;4.47;3.00;;;24.10;88.40;;;;;;5010279;28;20038;-71
2022/07/30 09:51:11;;;;;;;4.55;2.78;;;24.10;90.30;;;;;;5016663;28;20037;-71
2022/07/30 09:53:53;;;;;;;6.43;3.15;;;24.20;88.70;;;;;;5022384;28;20128;-71
2022/07/30 09:56:22;;;;;;;;;;;24.40;89.50;;;;;;5030921;28;20045;-71
2022/07/30 09:58:48;;;;;;;5.78;3.00;;;24.50;88.10;;;;;;5024838;28;20004;-71
2022/07/30 10:01:14;;;;;;;3.95;2.25;;;24.60;87.60;;;;;;5030129;28;20113;-70
2022/07/30 10:03:44;;;;;;;5.88;3.03;;;24.70;89.50;;;;;;5018249;28;20120;-71
2022/07/30 10:06:10;;;;;;;4.97;2.70;;;24.60;89.10;;;;;;5015649;28;20050;-70
2022/07/30 10:08:38;;;;;;;4.00;2.55;;;24.70;88.80;;;;;;5047010;28;20044;-70
2022/07/30 10:11:05;;;;;;;5.85;2.22;;;24.90;88.10;;;;;;5031810;28;20037;-70
2022/07/30 10:13:32;;;;;;;4.38;2.92;;;24.90;88.50;;;;;;5029300;28;20703;-70
2022/07/30 10:15:59;;;;;;;5.22;2.80;;;24.70;88.30;;;;;;5030832;28;20025;-71
2022/07/30 10:18:26;;;;;;;6.38;2.33;;;24.00;90.00;;;;;;5028335;28;20051;-70
2022/07/30 10:20:52;;;;;;;4.28;2.90;;;24.50;88.20;;;;;;5032067;28;20071;-71
2022/07/30 10:23:18;;;;;;;5.28;2.90;;;24.50;89.70;;;;;;5032954;28;20092;-71
2022/07/30 10:25:44;;;;;;;6.95;2.90;;;24.80;88.40;;;;;;5032799;28;20055;-71
2022/07/30 10:28:10;;;;;;;8.55;2.83;;;24.90;86.50;;;;;;5031283;28;20484;-71
2022/07/30 10:30:36;;;;;;;6.50;2.97;;;24.90;87.50;;;;;;5032997;28;20033;-71
2022/07/30 10:33:02;;;;;;;5.80;3.13;;;24.80;89.80;;;;;;5013334;28;20044;-71
2022/07/30 10:35:28;;;;;;;4.93;2.80;;;24.30;89.80;;;;;;5021764;28;20197;-72
2022/07/30 10:37:56;;;;;;;3.60;2.30;;;24.40;89.20;;;;;;5033861;28;20080;-71
2022/07/30 10:40:39;;;;;;;7.47;2.55;;;24.70;87.20;;;;;;5011016;28;20041;-71
2022/07/30 10:43:44;;;;;;;3.10;2.33;;;24.80;86.40;;;;;;5029039;28;20344;-71
2022/07/30 10:46:24;;;;;;;3.63;2.50;;;24.90;85.20;;;;;;5013372;28;20072;-71
2022/07/30 10:48:50;;;;;;;6.05;2.63;;;25.20;85.90;;;;;;5027738;28;21902;-71
2022/07/30 10:51:16;;;;;;;5.72;2.53;;;25.30;85.40;;;;;;5015386;28;20045;-70
2022/07/30 10:53:45;;;;;;;5.97;2.95;;;25.10;86.00;;;;;;5031783;28;20064;-71
2022/07/30 10:56:23;;;;;;;4.97;2.53;;;25.10;88.20;;;;;;5030927;28;20042;-71
2022/07/30 10:59:03;;;;;;;7.65;2.92;;;25.10;87.90;;;;;;5030905;28;20518;-71
2022/07/30 11:01:48;;;;;;;4.78;2.47;;;25.00;87.00;;;;;;5026204;28;20034;-71
2022/07/30 11:04:22;;;;;;;3.88;2.30;;;24.90;87.40;;;;;;5024444;28;20053;-71
2022/07/30 11:06:48;;;;;;;3.60;2.20;;;25.10;86.50;;;;;;5028398;28;20056;-71
2022/07/30 11:09:41;;;;;;;4.72;2.30;;;25.30;85.00;;;;;;5029258;28;20041;-71
2022/07/30 11:12:08;;;;;;;4.50;2.50;;;25.40;85.20;;;;;;5018812;28;20049;-71
2022/07/30 11:14:46;;;;;;;6.60;2.58;;;25.50;84.30;;;;;;5020521;28;20049;-70
2022/07/30 11:17:18;;;;;;;3.42;2.00;;;25.60;86.20;;;;;;5027539;28;20041;-71
2022/07/30 11:20:08;;;;;;;5.60;2.90;;;25.90;84.90;;;;;;5031820;28;20076;-71
2022/07/30 11:22:37;;;;;;;4.63;2.50;;;25.90;84.80;;;;;;5032006;28;20124;-70
2022/07/30 11:25:08;;;;;;;5.45;2.10;;;25.90;85.00;;;;;;5017060;28;20136;-71
2022/07/30 11:27:37;;;;;;;9.07;2.95;;;25.80;83.60;;;;;;5027928;28;20169;-71
2022/07/30 11:30:06;;;;;;;5.75;2.20;;;25.90;82.90;;;;;;5031134;28;20049;-71
2022/07/30 11:32:33;;;;;;;5.55;2.33;;;26.00;83.40;;;;;;5029385;28;20073;-71
2022/07/30 11:35:18;;;;;;;6.35;2.60;;;26.10;83.00;;;;;;5016758;28;20037;-71
2022/07/30 11:38:00;;;;;;;9.00;2.33;;;26.30;81.20;;;;;;5029401;28;20045;-72
2022/07/30 11:40:31;;;;;;;6.15;2.65;;;26.10;84.60;;;;;;5027148;28;20037;-71
2022/07/30 11:43:18;;;;;;;8.40;3.10;;;26.00;82.80;;;;;;5027998;28;20052;-71
2022/07/30 11:45:45;;;;;;;3.40;2.13;;;25.70;82.80;;;;;;5030483;28;20042;-70
2022/07/30 11:48:13;;;;;;;3.75;2.30;;;25.70;83.20;;;;;;5023904;28;20038;-71
2022/07/30 11:50:40;;;;;;;5.70;2.13;;;25.70;84.70;;;;;;5015133;28;20095;-72
2022/07/30 11:53:08;;;;;;;4.60;2.20;;;25.80;83.00;;;;;;5013499;28;20395;-71
2022/07/30 11:55:40;;;;;;;5.60;2.33;;;25.90;82.90;;;;;;5024932;28;20045;-72
2022/07/30 11:58:08;;;;;;;6.30;2.20;;;25.70;82.20;;;;;;5031188;28;20147;-72
2022/07/30 12:00:46;;;;;;;4.38;2.17;;;25.50;83.10;;;;;;5028877;28;20045;-71
2022/07/30 12:03:23;;;;;;;3.78;1.92;;;25.70;82.70;;;;;;5026922;28;20057;-71
2022/07/30 12:05:49;;;;;;;3.95;1.83;;;25.80;82.50;;;;;;5031360;28;20041;-72
2022/07/30 12:08:16;;;;;;;4.32;2.17;;;26.00;83.20;;;;;;5041489;28;20048;-71
2022/07/30 12:10:43;;;;;;;4.15;1.80;;;26.20;80.80;;;;;;5031793;28;20045;-72
2022/07/30 12:13:14;;;;;;;4.50;2.10;;;26.10;81.00;;;;;;5031303;28;20041;-71
2022/07/30 12:15:43;;;;;;;9.15;2.67;;;26.20;80.90;;;;;;5013904;28;20599;-72
2022/07/30 12:18:12;;;;;;;3.33;1.77;;;26.20;81.30;;;;;;5014818;28;20045;-73
2022/07/30 12:20:38;;;;;;;4.57;2.10;;;26.10;81.30;;;;;;5025123;28;20057;-71
2022/07/30 12:23:11;;;;;;;3.25;1.90;;;25.80;81.70;;;;;;5018868;28;20499;-73
2022/07/30 12:25:42;;;;;;;3.70;2.10;;;25.60;82.30;;;;;;5023974;28;20056;-72
2022/07/30 12:28:09;;;;;;;3.53;1.90;;;25.90;82.90;;;;;;5014877;28;20034;-70
2022/07/30 12:30:41;;;;;;;2.13;1.80;;;26.00;82.20;;;;;;5023502;28;20117;-71
2022/07/30 12:33:07;;;;;;;2.92;1.60;;;25.80;81.50;;;;;;5019283;28;20048;-71
2022/07/30 12:35:42;;;;;;;3.50;1.60;;;25.80;82.40;;;;;;5030595;28;20045;-70
2022/07/30 12:38:08;;;;;;;3.78;1.83;;;26.10;81.20;;;;;;5030942;28;20052;-71
2022/07/30 12:41:03;;;;;;;4.32;2.00;;;26.20;81.30;;;;;;5029136;28;20419;-70
2022/07/30 12:43:52;;;;;;;3.72;1.90;;;26.40;79.10;;;;;;5015226;28;20041;-71
2022/07/30 12:46:26;;;;;;;3.55;1.90;;;26.50;80.70;;;;;;5043708;28;20095;-70
2022/07/30 12:48:55;;;;;;;4.32;1.70;;;26.30;80.90;;;;;;5030985;28;20414;-71
2022/07/30 12:51:23;;;;;;;5.00;1.52;;;26.10;80.50;;;;;;5030507;28;20034;-71
2022/07/30 12:53:49;;;;;;;3.45;1.95;;;26.00;80.60;;;;;;5030397;28;20046;-70